Time,TemperatureF,DewpointF,PressureIn,WindDirection,WindDirectionDegrees,WindSpeedMPH,WindSpeedGustMPH,Humidity,HourlyPrecipIn,Conditions,Clouds,dailyrainin,SoftwareType,DateUTC
2013-05-04 00:00:00,40.4,-8.0,-100.00,WSW,243,0.0,0.0,12,0.00,,,0.00,,2013-05-04 05:00:00,
2013-05-04 00:05:00,40.2,-8.0,-100.00,WSW,243,0.0,0.0,12,0.00,,,0.00,,2013-05-04 05:05:00,
2013-05-04 00:10:00,40.0,-8.0,-100.00,WSW,243,0.0,0.0,12,0.00,,,0.00,,2013-05-04 05:10:00,
2013-05-04 00:15:00,40.0,-8.0,-100.00,WSW,243,0.0,0.0,12,0.00,,,0.00,,2013-05-04 05:15:00,
2013-05-04 00:20:00,39.9,-8.0,-100.00,WSW,243,0.0,0.0,12,0.00,,,0.00,,2013-05-04 05:20:00,
2013-05-04 00:25:00,39.9,-8.0,-100.00,WSW,243,0.0,0.0,12,0.00,,,0.00,,2013-05-04 05:25:00,
2013-05-04 00:30:00,39.9,-8.0,-100.00,WSW,243,0.0,0.0,12,0.00,,,0.00,,2013-05-04 05:30:00,
2013-05-04 00:35:00,40.0,-8.0,-100.00,WSW,243,0.0,0.0,12,0.00,,,0.00,,2013-05-04 05:35:00,
2013-05-04 00:40:00,39.8,-6.0,-100.00,WSW,243,0.0,0.0,13,0.00,,,0.00,,2013-05-04 05:40:00,
2013-05-04 00:45:00,39.8,-6.0,-100.00,WSW,243,0.0,0.0,13,0.00,,,0.00,,2013-05-04 05:45:00,
2013-05-04 00:50:00,39.7,-7.0,-100.00,WSW,243,0.0,0.0,13,0.00,,,0.00,,2013-05-04 05:50:00,
2013-05-04 00:55:00,39.4,-7.0,-100.00,WSW,243,0.0,0.0,13,0.00,,,0.00,,2013-05-04 05:55:00,
2013-05-04 01:00:00,39.2,-7.0,-100.00,WSW,243,0.0,0.0,13,0.00,,,0.00,,2013-05-04 06:00:00,
2013-05-04 01:05:00,39.3,-7.0,-100.00,WSW,243,0.0,0.0,13,0.00,,,0.00,,2013-05-04 06:05:00,
2013-05-04 01:10:00,39.4,-7.0,-100.00,WSW,243,0.0,0.0,13,0.00,,,0.00,,2013-05-04 06:10:00,
2013-05-04 01:15:00,39.4,-7.0,-100.00,WSW,243,0.0,0.0,13,0.00,,,0.00,,2013-05-04 06:15:00,
2013-05-04 01:20:00,39.3,-7.0,-100.00,WSW,243,0.0,0.0,13,0.00,,,0.00,,2013-05-04 06:20:00,
2013-05-04 01:30:00,39.8,-6.0,-100.00,WSW,243,0.0,0.0,13,0.00,,,0.00,,2013-05-04 06:30:00,
2013-05-04 01:35:00,40.3,-8.0,-100.00,WSW,243,0.0,0.0,12,0.00,,,0.00,,2013-05-04 06:35:00,
2013-05-04 01:40:00,42.0,-6.0,-100.00,WSW,243,0.0,0.0,12,0.00,,,0.00,,2013-05-04 06:40:00,
2013-05-04 01:45:00,42.0,-6.0,-100.00,WSW,243,0.0,0.0,12,0.00,,,0.00,,2013-05-04 06:45:00,
2013-05-04 01:50:00,40.8,-7.0,-100.00,WSW,243,0.0,0.0,12,0.00,,,0.00,,2013-05-04 06:50:00,
2013-05-04 01:55:00,40.6,-7.0,-100.00,WSW,243,0.0,0.0,12,0.00,,,0.00,,2013-05-04 06:55:00,
2013-05-04 02:00:00,40.4,-8.0,-100.00,WSW,243,0.0,0.0,12,0.00,,,0.00,,2013-05-04 07:00:00,
2013-05-04 02:05:00,40.3,-8.0,-100.00,WSW,243,0.0,0.0,12,0.00,,,0.00,,2013-05-04 07:05:00,
2013-05-04 02:10:00,40.3,-5.0,-100.00,WSW,243,0.0,0.0,14,0.00,,,0.00,,2013-05-04 07:10:00,
2013-05-04 02:15:00,40.3,0.0,-100.00,WSW,243,0.0,0.0,17,0.00,,,0.00,,2013-05-04 07:15:00,
2013-05-04 02:20:00,40.5,1.0,-100.00,WSW,243,0.0,0.0,19,0.00,,,0.00,,2013-05-04 07:20:00,
2013-05-04 02:25:00,40.7,1.0,-100.00,WSW,243,0.0,0.0,19,0.00,,,0.00,,2013-05-04 07:25:00,
2013-05-04 02:30:00,42.2,7.0,-100.00,WSW,243,0.0,0.0,23,0.00,,,0.00,,2013-05-04 07:30:00,
2013-05-04 02:35:00,42.8,9.0,-100.00,WSW,243,0.0,0.0,25,0.00,,,0.00,,2013-05-04 07:35:00,
2013-05-04 02:40:00,44.1,7.0,-100.00,WSW,243,0.0,0.0,22,0.00,,,0.00,,2013-05-04 07:40:00,
2013-05-04 02:45:00,44.8,26.0,-100.00,WSW,243,0.0,0.0,48,0.00,,,0.00,,2013-05-04 07:45:00,
2013-05-04 02:50:00,46.0,27.0,-100.00,WSW,243,0.0,0.0,49,0.00,,,0.00,,2013-05-04 07:50:00,
2013-05-04 02:55:00,44.9,23.0,-100.00,WSW,243,0.0,0.0,43,0.00,,,0.00,,2013-05-04 07:55:00,
2013-05-04 03:00:00,44.7,24.0,-100.00,WSW,243,0.0,0.0,45,0.00,,,0.00,,2013-05-04 08:00:00,
2013-05-04 03:05:00,44.7,24.0,-100.00,WSW,243,0.0,0.0,44,0.00,,,0.00,,2013-05-04 08:05:00,
2013-05-04 03:10:00,44.5,28.0,-100.00,WSW,243,0.0,0.0,53,0.00,,,0.00,,2013-05-04 08:10:00,
2013-05-04 03:15:00,42.9,26.0,-100.00,WSW,243,0.0,0.0,53,0.00,,,0.00,,2013-05-04 08:15:00,
2013-05-04 03:20:00,42.5,26.0,-100.00,WSW,243,0.0,0.0,53,0.00,,,0.00,,2013-05-04 08:20:00,
2013-05-04 03:25:00,40.9,17.0,-100.00,WSW,243,0.0,0.0,38,0.00,,,0.00,,2013-05-04 08:25:00,
2013-05-04 03:30:00,40.6,18.0,-100.00,WSW,243,0.0,0.0,40,0.00,,,0.00,,2013-05-04 08:30:00,
2013-05-04 03:35:00,40.5,24.0,-100.00,WSW,243,0.0,0.0,52,0.00,,,0.00,,2013-05-04 08:35:00,
2013-05-04 03:40:00,40.3,23.0,-100.00,WSW,243,0.0,0.0,50,0.00,,,0.00,,2013-05-04 08:40:00,
2013-05-04 03:45:00,40.1,23.0,-100.00,WSW,243,0.0,0.0,52,0.00,,,0.00,,2013-05-04 08:45:00,
2013-05-04 03:50:00,40.0,26.0,-100.00,WSW,243,0.0,0.0,59,0.00,,,0.00,,2013-05-04 08:50:00,
2013-05-04 03:55:00,39.6,24.0,-100.00,WSW,243,0.0,0.0,55,0.00,,,0.00,,2013-05-04 08:55:00,
2013-05-04 04:00:00,39.3,24.0,-100.00,WSW,243,0.0,0.0,55,0.00,,,0.00,,2013-05-04 09:00:00,
2013-05-04 04:05:00,39.3,24.0,-100.00,WSW,243,0.0,0.0,54,0.00,,,0.00,,2013-05-04 09:05:00,
2013-05-04 04:10:00,39.3,21.0,-100.00,WSW,243,0.0,0.0,48,0.00,,,0.00,,2013-05-04 09:10:00,
2013-05-04 04:15:00,39.0,25.0,-100.00,WSW,243,0.0,0.0,57,0.00,,,0.00,,2013-05-04 09:15:00,
2013-05-04 04:20:00,37.8,24.0,-100.00,WSW,243,0.0,0.0,58,0.00,,,0.00,,2013-05-04 09:20:00,
2013-05-04 04:25:00,37.7,25.0,-100.00,WSW,243,0.0,0.0,61,0.00,,,0.00,,2013-05-04 09:25:00,
2013-05-04 04:30:00,37.5,25.0,-100.00,WSW,243,0.0,0.0,61,0.00,,,0.00,,2013-05-04 09:30:00,
2013-05-04 04:35:00,37.4,24.0,-100.00,WSW,243,0.0,0.0,60,0.00,,,0.00,,2013-05-04 09:35:00,
2013-05-04 04:40:00,37.5,24.0,-100.00,WSW,243,0.0,0.0,60,0.00,,,0.00,,2013-05-04 09:40:00,
2013-05-04 04:45:00,37.6,25.0,-100.00,WSW,243,0.0,0.0,61,0.00,,,0.00,,2013-05-04 09:45:00,
2013-05-04 04:50:00,37.6,23.0,-100.00,WSW,243,0.0,0.0,57,0.00,,,0.00,,2013-05-04 09:50:00,
2013-05-04 04:55:00,39.1,25.0,-100.00,WSW,243,0.0,0.0,58,0.00,,,0.00,,2013-05-04 09:55:00,
2013-05-04 05:00:00,39.5,25.0,-100.00,WSW,243,0.0,0.0,56,0.00,,,0.00,,2013-05-04 10:00:00,
2013-05-04 05:05:00,40.5,27.0,-100.00,WSW,243,0.0,0.0,59,0.00,,,0.00,,2013-05-04 10:05:00,
2013-05-04 05:10:00,42.4,27.0,-100.00,WSW,243,0.0,0.0,56,0.00,,,0.00,,2013-05-04 10:10:00,
2013-05-04 05:15:00,44.2,28.0,-100.00,WSW,243,0.0,0.0,53,0.00,,,0.00,,2013-05-04 10:15:00,
2013-05-04 05:20:00,44.6,29.0,-100.00,WSW,243,0.0,0.0,55,0.00,,,0.00,,2013-05-04 10:20:00,
2013-05-04 05:25:00,44.8,29.0,-100.00,WSW,243,0.0,0.0,54,0.00,,,0.00,,2013-05-04 10:25:00,
2013-05-04 05:30:00,44.6,27.0,-100.00,WSW,243,0.0,0.0,50,0.00,,,0.00,,2013-05-04 10:30:00,
2013-05-04 05:35:00,44.3,26.0,-100.00,WSW,243,0.0,0.0,50,0.00,,,0.00,,2013-05-04 10:35:00,
2013-05-04 05:40:00,42.6,25.0,-100.00,WSW,243,0.0,0.0,51,0.00,,,0.00,,2013-05-04 10:40:00,
2013-05-04 05:45:00,42.0,25.0,-100.00,WSW,243,0.0,0.0,52,0.00,,,0.00,,2013-05-04 10:45:00,
2013-05-04 05:50:00,40.6,24.0,-100.00,WSW,243,0.0,0.0,53,0.00,,,0.00,,2013-05-04 10:50:00,
2013-05-04 05:55:00,40.4,25.0,-100.00,WSW,243,0.0,0.0,55,0.00,,,0.00,,2013-05-04 10:55:00,
2013-05-04 06:00:00,40.2,24.0,-100.00,WSW,243,0.0,0.0,54,0.00,,,0.00,,2013-05-04 11:00:00,
2013-05-04 06:05:00,40.3,27.0,-100.00,WSW,243,0.0,0.0,59,0.00,,,0.00,,2013-05-04 11:05:00,
2013-05-04 06:10:00,40.4,24.0,-100.00,WSW,243,0.0,0.0,53,0.00,,,0.00,,2013-05-04 11:10:00,
2013-05-04 06:15:00,40.3,24.0,-100.00,WSW,243,0.0,0.0,54,0.00,,,0.00,,2013-05-04 11:15:00,
2013-05-04 06:20:00,40.6,27.0,-100.00,WSW,243,0.0,0.0,59,0.00,,,0.00,,2013-05-04 11:20:00,
2013-05-04 06:25:00,42.0,26.0,-100.00,WSW,243,0.0,0.0,54,0.00,,,0.00,,2013-05-04 11:25:00,
2013-05-04 06:30:00,40.8,25.0,-100.00,WSW,243,0.0,0.0,54,0.00,,,0.00,,2013-05-04 11:30:00,
2013-05-04 06:35:00,40.2,25.0,-100.00,WSW,243,0.0,0.0,55,0.00,,,0.00,,2013-05-04 11:35:00,
2013-05-04 06:40:00,40.2,17.0,-100.00,WSW,243,0.0,0.0,40,0.00,,,0.00,,2013-05-04 11:40:00,
2013-05-04 06:50:00,40.3,13.0,-100.00,WSW,243,0.0,0.0,33,0.00,,,0.00,,2013-05-04 11:50:00,
2013-05-04 06:55:00,40.8,18.0,-100.00,WSW,243,0.0,0.0,40,0.00,,,0.00,,2013-05-04 11:55:00,
2013-05-04 07:00:00,42.3,24.0,-100.00,WSW,243,0.0,0.0,49,0.00,,,0.00,,2013-05-04 12:00:00,
2013-05-04 07:15:00,44.8,27.0,-100.00,WSW,243,0.0,0.0,50,0.00,,,0.00,,2013-05-04 12:15:00,
2013-05-04 07:20:00,46.2,27.0,-100.00,WSW,243,0.0,0.0,47,0.00,,,0.00,,2013-05-04 12:20:00,
2013-05-04 07:25:00,46.6,24.0,-100.00,WSW,243,0.0,0.0,41,0.00,,,0.00,,2013-05-04 12:25:00,
2013-05-04 07:30:00,48.0,28.0,-100.00,WSW,243,0.0,0.0,46,0.00,,,0.00,,2013-05-04 12:30:00,
2013-05-04 07:35:00,48.5,11.0,-100.00,WSW,243,0.0,0.0,22,0.00,,,0.00,,2013-05-04 12:35:00,
2013-05-04 07:40:00,48.8,11.0,-100.00,WSW,243,0.0,0.0,22,0.00,,,0.00,,2013-05-04 12:40:00,
2013-05-04 07:45:00,49.1,22.0,-100.00,WSW,240,0.0,0.0,35,0.00,,,0.00,,2013-05-04 12:45:00,
2013-05-04 07:50:00,49.4,29.0,-100.00,SW,217,0.0,0.0,46,0.00,,,0.00,,2013-05-04 12:50:00,
2013-05-04 07:55:00,49.8,30.0,-100.00,SSW,212,0.0,0.0,48,0.00,,,0.00,,2013-05-04 12:55:00,
2013-05-04 08:00:00,51.1,32.0,-100.00,SW,220,0.0,0.0,48,0.00,,,0.00,,2013-05-04 13:00:00,
2013-05-04 08:05:00,51.6,-5.0,-100.00,SW,217,0.0,0.0,9,0.00,,,0.00,,2013-05-04 13:05:00,
2013-05-04 08:10:00,53.0,-4.0,-100.00,SW,220,0.0,0.0,9,0.00,,,0.00,,2013-05-04 13:10:00,
2013-05-04 08:15:00,53.3,-4.0,-100.00,SW,215,0.0,0.0,9,0.00,,,0.00,,2013-05-04 13:15:00,
2013-05-04 08:20:00,53.5,-3.0,-100.00,SW,217,0.0,0.0,9,0.00,,,0.00,,2013-05-04 13:20:00,
2013-05-04 08:25:00,53.7,-6.0,-100.00,SW,220,0.0,0.0,8,0.00,,,0.00,,2013-05-04 13:25:00,
2013-05-04 08:30:00,53.8,-6.0,-100.00,SW,229,0.0,0.0,8,0.00,,,0.00,,2013-05-04 13:30:00,
2013-05-04 08:35:00,55.0,-5.0,-100.00,SW,217,0.0,0.0,8,0.00,,,0.00,,2013-05-04 13:35:00,
2013-05-04 08:40:00,55.2,-5.0,-100.00,SW,231,0.0,0.0,8,0.00,,,0.00,,2013-05-04 13:40:00,
2013-05-04 08:45:00,55.5,-7.0,-100.00,SW,220,0.0,0.0,7,0.00,,,0.00,,2013-05-04 13:45:00,
2013-05-04 08:50:00,55.4,-7.0,-100.00,SW,220,0.0,0.0,7,0.00,,,0.00,,2013-05-04 13:50:00,
2013-05-04 08:55:00,55.7,-7.0,-100.00,SW,217,0.0,0.0,7,0.00,,,0.00,,2013-05-04 13:55:00,
2013-05-04 09:00:00,57.0,-6.0,-100.00,SW,217,0.0,0.0,7,0.00,,,0.00,,2013-05-04 14:00:00,
2013-05-04 09:10:00,57.7,-5.0,-100.00,SW,223,0.0,0.0,7,0.00,,,0.00,,2013-05-04 14:10:00,
2013-05-04 09:15:00,58.1,-8.0,-100.00,SSW,212,0.0,0.0,6,0.00,,,0.00,,2013-05-04 14:15:00,
2013-05-04 09:20:00,58.5,-8.0,-100.00,SSW,203,0.0,0.0,6,0.00,,,0.00,,2013-05-04 14:20:00,
2013-05-04 09:25:00,60.0,-7.0,-100.00,SW,226,0.0,0.0,6,0.00,,,0.00,,2013-05-04 14:25:00,
2013-05-04 09:30:00,60.6,-10.0,-100.00,SSW,203,0.0,0.0,5,0.00,,,0.00,,2013-05-04 14:30:00,
2013-05-04 09:35:00,62.2,-13.0,-100.00,SSW,200,0.0,0.0,4,0.00,,,0.00,,2013-05-04 14:35:00,
2013-05-04 09:40:00,62.6,-19.0,-100.00,SSW,203,0.0,0.0,3,0.00,,,0.00,,2013-05-04 14:40:00,
2013-05-04 09:45:00,62.8,-26.0,-100.00,SW,215,0.0,0.0,2,0.00,,,0.00,,2013-05-04 14:45:00,
2013-05-04 09:50:00,64.2,-25.0,-100.00,SSW,195,0.0,0.0,2,0.00,,,0.00,,2013-05-04 14:50:00,
2013-05-04 09:55:00,64.7,-25.0,-100.00,SW,218,0.0,0.0,2,0.00,,,0.00,,2013-05-04 14:55:00,
2013-05-04 10:00:00,64.9,-25.0,-100.00,SSW,212,0.0,0.0,2,0.00,,,0.00,,2013-05-04 15:00:00,
2013-05-04 10:05:00,66.2,-37.0,-100.00,SW,220,0.0,0.0,1,0.00,,,0.00,,2013-05-04 15:05:00,
2013-05-04 10:10:00,66.5,-36.0,-100.00,SSW,195,0.0,0.0,1,0.00,,,0.00,,2013-05-04 15:10:00,
2013-05-04 10:15:00,66.8,-36.0,-100.00,SSW,209,0.0,0.0,1,0.00,,,0.00,,2013-05-04 15:15:00,
2013-05-04 10:20:00,67.5,-36.0,-100.00,SW,215,0.0,0.0,1,0.00,,,0.00,,2013-05-04 15:20:00,
2013-05-04 10:25:00,67.7,-99.9,-100.00,SSW,209,0.0,0.0,0,0.00,,,0.00,,2013-05-04 15:25:00,
2013-05-04 10:30:00,67.7,-99.9,-100.00,SW,217,0.0,0.0,0,0.00,,,0.00,,2013-05-04 15:30:00,
2013-05-04 10:35:00,67.8,-99.9,-100.00,SSW,209,0.0,0.0,0,0.00,,,0.00,,2013-05-04 15:35:00,
2013-05-04 10:40:00,69.1,-99.9,-100.00,SW,220,0.0,0.0,0,0.00,,,0.00,,2013-05-04 15:40:00,
2013-05-04 10:45:00,69.2,-99.9,-100.00,SSW,212,0.0,0.0,0,0.00,,,0.00,,2013-05-04 15:45:00,
2013-05-04 10:50:00,69.6,-99.9,-100.00,SW,217,0.0,0.0,0,0.00,,,0.00,,2013-05-04 15:50:00,
2013-05-04 10:55:00,69.8,-99.9,-100.00,SSW,212,0.0,0.0,0,0.00,,,0.00,,2013-05-04 15:55:00,
2013-05-04 11:00:00,71.1,-99.9,-100.00,SW,234,0.0,0.0,0,0.00,,,0.00,,2013-05-04 16:00:00,
2013-05-04 11:05:00,71.6,-99.9,-100.00,SW,215,0.0,0.0,0,0.00,,,0.00,,2013-05-04 16:05:00,
2013-05-04 11:10:00,73.0,-99.9,-100.00,SSW,212,0.0,0.0,0,0.00,,,0.00,,2013-05-04 16:10:00,
2013-05-04 11:15:00,73.5,-99.9,-100.00,SSW,203,0.0,0.0,0,0.00,,,0.00,,2013-05-04 16:15:00,
2013-05-04 11:20:00,73.3,-99.9,-100.00,SSW,209,0.0,0.0,0,0.00,,,0.00,,2013-05-04 16:20:00,
2013-05-04 11:25:00,73.5,-99.9,-100.00,SSW,203,0.0,0.0,0,0.00,,,0.00,,2013-05-04 16:25:00,
2013-05-04 11:30:00,75.0,-99.9,-100.00,SSW,198,0.0,0.0,0,0.00,,,0.00,,2013-05-04 16:30:00,
2013-05-04 11:35:00,75.0,-99.9,-100.00,SW,217,0.0,0.0,0,0.00,,,0.00,,2013-05-04 16:35:00,
2013-05-04 11:40:00,75.1,-99.9,-100.00,SW,215,0.0,0.0,0,0.00,,,0.00,,2013-05-04 16:40:00,
2013-05-04 11:45:00,75.2,-99.9,-100.00,SW,229,0.0,0.0,0,0.00,,,0.00,,2013-05-04 16:45:00,
2013-05-04 11:50:00,75.8,-99.9,-100.00,SW,234,0.0,0.0,0,0.00,,,0.00,,2013-05-04 16:50:00,
2013-05-04 11:55:00,76.0,-99.9,-100.00,SW,229,0.0,0.0,0,0.00,,,0.00,,2013-05-04 16:55:00,
2013-05-04 12:00:00,75.6,-99.9,-100.00,WSW,257,0.0,0.0,0,0.00,,,0.00,,2013-05-04 17:00:00,
2013-05-04 12:05:00,75.8,-99.9,-100.00,SW,217,0.0,0.0,0,0.00,,,0.00,,2013-05-04 17:05:00,
2013-05-04 12:10:00,76.0,-99.9,-100.00,SW,223,0.0,0.0,0,0.00,,,0.00,,2013-05-04 17:10:00,
2013-05-04 12:15:00,76.2,-99.9,-100.00,SW,220,0.0,0.0,0,0.00,,,0.00,,2013-05-04 17:15:00,
2013-05-04 12:20:00,76.3,-99.9,-100.00,West,262,0.0,0.0,0,0.00,,,0.00,,2013-05-04 17:20:00,
2013-05-04 12:25:00,76.8,-99.9,-100.00,SW,226,0.0,0.0,0,0.00,,,0.00,,2013-05-04 17:25:00,
2013-05-04 12:30:00,76.6,-99.9,-100.00,SW,220,0.0,0.0,0,0.00,,,0.00,,2013-05-04 17:30:00,
2013-05-04 12:35:00,76.7,-99.9,-100.00,SW,229,0.0,0.0,0,0.00,,,0.00,,2013-05-04 17:35:00,
2013-05-04 12:40:00,76.6,-99.9,-100.00,SSW,212,0.0,0.0,0,0.00,,,0.00,,2013-05-04 17:40:00,
2013-05-04 12:45:00,78.2,-99.9,-100.00,SW,232,0.0,0.0,0,0.00,,,0.00,,2013-05-04 17:45:00,
2013-05-04 12:50:00,78.1,-99.9,-100.00,WSW,237,0.0,0.0,0,0.00,,,0.00,,2013-05-04 17:50:00,
2013-05-04 12:55:00,76.9,-99.9,-100.00,SW,234,0.0,0.0,0,0.00,,,0.00,,2013-05-04 17:55:00,
2013-05-04 13:00:00,76.8,-99.9,-100.00,SW,217,0.0,0.0,0,0.00,,,0.00,,2013-05-04 18:00:00,
2013-05-04 13:05:00,78.0,-99.9,-100.00,WSW,237,0.0,0.0,0,0.00,,,0.00,,2013-05-04 18:05:00,
2013-05-04 13:10:00,78.1,-99.9,-100.00,WSW,243,0.0,0.0,0,0.00,,,0.00,,2013-05-04 18:10:00,
2013-05-04 13:15:00,78.4,-99.9,-100.00,West,259,0.0,0.0,0,0.00,,,0.00,,2013-05-04 18:15:00,
2013-05-04 13:20:00,78.7,-99.9,-100.00,SW,231,0.0,0.0,0,0.00,,,0.00,,2013-05-04 18:20:00,
2013-05-04 13:25:00,78.5,-99.9,-100.00,SW,215,0.0,0.0,0,0.00,,,0.00,,2013-05-04 18:25:00,
2013-05-04 13:30:00,78.7,-99.9,-100.00,West,265,0.0,0.0,0,0.00,,,0.00,,2013-05-04 18:30:00,
2013-05-04 13:35:00,80.3,-99.9,-100.00,West,262,0.0,0.0,0,0.00,,,0.00,,2013-05-04 18:35:00,
2013-05-04 13:40:00,80.3,-99.9,-100.00,West,265,0.0,0.0,0,0.00,,,0.00,,2013-05-04 18:40:00,
2013-05-04 13:45:00,80.4,-99.9,-100.00,West,265,0.0,0.0,0,0.00,,,0.00,,2013-05-04 18:45:00,
2013-05-04 13:50:00,80.6,-99.9,-100.00,SW,226,0.0,0.0,0,0.00,,,0.00,,2013-05-04 18:50:00,
2013-05-04 13:55:00,80.5,-99.9,-100.00,WSW,243,0.0,0.0,0,0.00,,,0.00,,2013-05-04 18:55:00,
2013-05-04 14:00:00,80.3,-99.9,-100.00,WSW,240,0.0,0.0,0,0.00,,,0.00,,2013-05-04 19:00:00,
2013-05-04 14:05:00,80.3,-99.9,-100.00,SW,231,0.0,0.0,0,0.00,,,0.00,,2013-05-04 19:05:00,
2013-05-04 14:10:00,80.7,-99.9,-100.00,SW,223,0.0,0.0,0,0.00,,,0.00,,2013-05-04 19:10:00,
2013-05-04 14:15:00,82.0,-99.9,-100.00,WSW,240,0.0,0.0,0,0.00,,,0.00,,2013-05-04 19:15:00,
2013-05-04 14:20:00,80.6,-99.9,-100.00,WSW,257,0.0,0.0,0,0.00,,,0.00,,2013-05-04 19:20:00,
2013-05-04 14:25:00,80.7,-99.9,-100.00,SW,226,0.0,0.0,0,0.00,,,0.00,,2013-05-04 19:25:00,
2013-05-04 14:30:00,80.5,-99.9,-100.00,SW,217,0.0,0.0,0,0.00,,,0.00,,2013-05-04 19:30:00,
2013-05-04 14:35:00,80.6,-99.9,-100.00,West,265,0.0,0.0,0,0.00,,,0.00,,2013-05-04 19:35:00,
2013-05-04 14:40:00,82.3,-99.9,-100.00,WSW,237,0.0,0.0,0,0.00,,,0.00,,2013-05-04 19:40:00,
2013-05-04 14:45:00,82.6,-99.9,-100.00,SW,226,0.0,0.0,0,0.00,,,0.00,,2013-05-04 19:45:00,
2013-05-04 14:50:00,80.9,-99.9,-100.00,SW,234,0.0,0.0,0,0.00,,,0.00,,2013-05-04 19:50:00,
2013-05-04 14:55:00,80.5,-99.9,-100.00,SW,226,0.0,0.0,0,0.00,,,0.00,,2013-05-04 19:55:00,
2013-05-04 15:00:00,82.1,-99.9,-100.00,SW,231,0.0,0.0,0,0.00,,,0.00,,2013-05-04 20:00:00,
2013-05-04 15:05:00,82.1,-99.9,-100.00,SW,223,0.0,0.0,0,0.00,,,0.00,,2013-05-04 20:05:00,
2013-05-04 15:10:00,82.2,-99.9,-100.00,SW,215,0.0,0.0,0,0.00,,,0.00,,2013-05-04 20:10:00,
2013-05-04 15:15:00,82.3,-99.9,-100.00,SW,220,0.0,0.0,0,0.00,,,0.00,,2013-05-04 20:15:00,
2013-05-04 15:20:00,82.6,-99.9,-100.00,SSW,212,0.0,0.0,0,0.00,,,0.00,,2013-05-04 20:20:00,
2013-05-04 15:25:00,84.0,-99.9,-100.00,SW,223,0.0,0.0,0,0.00,,,0.00,,2013-05-04 20:25:00,
2013-05-04 15:30:00,82.5,-99.9,-100.00,WSW,237,0.0,0.0,0,0.00,,,0.00,,2013-05-04 20:30:00,
2013-05-04 15:35:00,82.3,-99.9,-100.00,SW,215,0.0,0.0,0,0.00,,,0.00,,2013-05-04 20:35:00,
2013-05-04 15:45:00,82.0,-99.9,-100.00,SW,215,0.0,0.0,0,0.00,,,0.00,,2013-05-04 20:45:00,
2013-05-04 15:50:00,80.7,-99.9,-100.00,WSW,237,0.0,0.0,0,0.00,,,0.00,,2013-05-04 20:50:00,
2013-05-04 15:55:00,80.8,-99.9,-100.00,SW,217,0.0,0.0,0,0.00,,,0.00,,2013-05-04 20:55:00,
2013-05-04 16:00:00,80.9,-99.9,-100.00,SSW,212,0.0,0.0,0,0.00,,,0.00,,2013-05-04 21:00:00,
2013-05-04 16:05:00,82.0,-99.9,-100.00,SW,223,0.0,0.0,0,0.00,,,0.00,,2013-05-04 21:05:00,
2013-05-04 16:10:00,80.8,-99.9,-100.00,SW,229,0.0,0.0,0,0.00,,,0.00,,2013-05-04 21:10:00,
2013-05-04 16:15:00,80.4,-99.9,-100.00,SW,226,0.0,0.0,0,0.00,,,0.00,,2013-05-04 21:15:00,
2013-05-04 16:20:00,80.1,-99.9,-100.00,WSW,243,0.0,0.0,0,0.00,,,0.00,,2013-05-04 21:20:00,
2013-05-04 16:25:00,78.8,-99.9,-100.00,WSW,240,0.0,0.0,0,0.00,,,0.00,,2013-05-04 21:25:00,
2013-05-04 16:30:00,80.0,-99.9,-100.00,WSW,254,0.0,0.0,0,0.00,,,0.00,,2013-05-04 21:30:00,
2013-05-04 16:35:00,78.8,-99.9,-100.00,SW,220,0.0,0.0,0,0.00,,,0.00,,2013-05-04 21:35:00,
2013-05-04 16:40:00,80.6,-99.9,-100.00,West,265,0.0,0.0,0,0.00,,,0.00,,2013-05-04 21:40:00,
2013-05-04 16:45:00,82.3,-99.9,-100.00,SW,220,0.0,0.0,0,0.00,,,0.00,,2013-05-04 21:45:00,
2013-05-04 16:50:00,82.1,-99.9,-100.00,SW,215,0.0,0.0,0,0.00,,,0.00,,2013-05-04 21:50:00,
2013-05-04 16:55:00,82.0,-99.9,-100.00,WSW,240,0.0,0.0,0,0.00,,,0.00,,2013-05-04 21:55:00,
2013-05-04 17:00:00,80.8,-99.9,-100.00,WSW,240,0.0,0.0,0,0.00,,,0.00,,2013-05-04 22:00:00,
2013-05-04 17:05:00,80.9,-99.9,-100.00,West,259,0.0,0.0,0,0.00,,,0.00,,2013-05-04 22:05:00,
2013-05-04 17:10:00,80.1,-99.9,-100.00,WSW,237,0.0,0.0,0,0.00,,,0.00,,2013-05-04 22:10:00,
2013-05-04 17:15:00,78.4,-99.9,-100.00,SW,223,0.0,0.0,0,0.00,,,0.00,,2013-05-04 22:15:00,
2013-05-04 17:20:00,78.4,-99.9,-100.00,SW,223,0.0,0.0,0,0.00,,,0.00,,2013-05-04 22:20:00,
2013-05-04 17:25:00,78.4,-99.9,-100.00,WSW,237,0.0,0.0,0,0.00,,,0.00,,2013-05-04 22:25:00,
2013-05-04 17:30:00,78.3,-99.9,-100.00,WSW,237,0.0,0.0,0,0.00,,,0.00,,2013-05-04 22:30:00,
2013-05-04 17:35:00,78.8,-99.9,-100.00,West,265,0.0,0.0,0,0.00,,,0.00,,2013-05-04 22:35:00,
2013-05-04 17:40:00,80.1,-99.9,-100.00,SW,229,0.0,0.0,0,0.00,,,0.00,,2013-05-04 22:40:00,
2013-05-04 17:50:00,78.1,-99.9,-100.00,West,262,0.0,0.0,0,0.00,,,0.00,,2013-05-04 22:50:00,
2013-05-04 17:55:00,78.9,-99.9,-100.00,SW,234,0.0,0.0,0,0.00,,,0.00,,2013-05-04 22:55:00,
2013-05-04 18:00:00,80.1,-99.9,-100.00,SW,231,0.0,0.0,0,0.00,,,0.00,,2013-05-04 23:00:00,
2013-05-04 18:05:00,80.2,-99.9,-100.00,SW,231,0.0,0.0,0,0.00,,,0.00,,2013-05-04 23:05:00,
2013-05-04 18:10:00,80.3,-99.9,-100.00,WSW,257,0.0,0.0,0,0.00,,,0.00,,2013-05-04 23:10:00,
2013-05-04 18:15:00,78.8,-99.9,-100.00,WSW,257,0.0,0.0,0,0.00,,,0.00,,2013-05-04 23:15:00,
2013-05-04 18:20:00,78.1,-99.9,-100.00,SW,220,0.0,0.0,0,0.00,,,0.00,,2013-05-04 23:20:00,
2013-05-04 18:25:00,78.3,-99.9,-100.00,West,265,0.0,0.0,0,0.00,,,0.00,,2013-05-04 23:25:00,
2013-05-04 18:30:00,78.4,-99.9,-100.00,SW,234,0.0,0.0,0,0.00,,,0.00,,2013-05-04 23:30:00,
2013-05-04 18:35:00,78.0,-99.9,-100.00,SW,234,0.0,0.0,0,0.00,,,0.00,,2013-05-04 23:35:00,
2013-05-04 18:40:00,76.8,-99.9,-100.00,WSW,240,0.0,0.0,0,0.00,,,0.00,,2013-05-04 23:40:00,
2013-05-04 18:50:00,76.5,-99.9,-100.00,West,265,0.0,0.0,0,0.00,,,0.00,,2013-05-04 23:50:00,
2013-05-04 18:55:00,76.3,-99.9,-100.00,WSW,240,0.0,0.0,0,0.00,,,0.00,,2013-05-04 23:55:00,
2013-05-04 19:00:00,76.2,-99.9,-100.00,WSW,257,0.0,0.0,0,0.00,,,0.00,,2013-05-05 00:00:00,
2013-05-04 19:05:00,76.0,-99.9,-100.00,SW,229,0.0,0.0,0,0.00,,,0.00,,2013-05-05 00:05:00,
2013-05-04 19:10:00,75.7,-99.9,-100.00,West,265,0.0,0.0,0,0.00,,,0.00,,2013-05-05 00:10:00,
2013-05-04 19:15:00,75.3,-99.9,-100.00,West,265,0.0,0.0,0,0.00,,,0.00,,2013-05-05 00:15:00,
2013-05-04 19:20:00,75.0,-99.9,-100.00,West,265,0.0,0.0,0,0.00,,,0.00,,2013-05-05 00:20:00,
2013-05-04 19:25:00,75.0,-99.9,-100.00,West,265,0.0,0.0,0,0.00,,,0.00,,2013-05-05 00:25:00,
2013-05-04 19:30:00,75.0,-99.9,-100.00,West,265,0.0,0.0,0,0.00,,,0.00,,2013-05-05 00:30:00,
2013-05-04 19:35:00,73.6,-99.9,-100.00,West,265,0.0,0.0,0,0.00,,,0.00,,2013-05-05 00:35:00,
2013-05-04 19:40:00,73.4,-99.9,-100.00,West,265,0.0,0.0,0,0.00,,,0.00,,2013-05-05 00:40:00,
2013-05-04 19:45:00,73.1,-99.9,-100.00,West,265,0.0,0.0,0,0.00,,,0.00,,2013-05-05 00:45:00,
2013-05-04 19:50:00,73.0,-99.9,-100.00,West,265,0.0,0.0,0,0.00,,,0.00,,2013-05-05 00:50:00,
2013-05-04 19:55:00,71.6,-99.9,-100.00,West,265,0.0,0.0,0,0.00,,,0.00,,2013-05-05 00:55:00,
2013-05-04 20:00:00,71.1,-99.9,-100.00,West,265,0.0,0.0,0,0.00,,,0.00,,2013-05-05 01:00:00,
2013-05-04 20:05:00,69.8,-99.9,-100.00,West,265,0.0,0.0,0,0.00,,,0.00,,2013-05-05 01:05:00,
2013-05-04 20:10:00,69.4,-99.9,-100.00,West,265,0.0,0.0,0,0.00,,,0.00,,2013-05-05 01:10:00,
2013-05-04 20:15:00,67.9,-99.9,-100.00,West,265,0.0,0.0,0,0.00,,,0.00,,2013-05-05 01:15:00,
2013-05-04 20:20:00,67.5,-99.9,-100.00,West,265,0.0,0.0,0,0.00,,,0.00,,2013-05-05 01:20:00,
2013-05-04 20:25:00,67.1,-99.9,-100.00,West,265,0.0,0.0,0,0.00,,,0.00,,2013-05-05 01:25:00,
2013-05-04 20:30:00,66.8,-99.9,-100.00,West,265,0.0,0.0,0,0.00,,,0.00,,2013-05-05 01:30:00,
2013-05-04 20:35:00,66.6,-99.9,-100.00,West,265,0.0,0.0,0,0.00,,,0.00,,2013-05-05 01:35:00,
2013-05-04 20:40:00,66.4,-99.9,-100.00,West,265,0.0,0.0,0,0.00,,,0.00,,2013-05-05 01:40:00,
2013-05-04 20:45:00,66.0,-99.9,-100.00,West,265,0.0,0.0,0,0.00,,,0.00,,2013-05-05 01:45:00,
2013-05-04 20:50:00,64.5,-38.0,-100.00,West,265,0.0,0.0,1,0.00,,,0.00,,2013-05-05 01:50:00,
2013-05-04 20:55:00,64.1,-38.0,-100.00,West,265,0.0,0.0,1,0.00,,,0.00,,2013-05-05 01:55:00,
2013-05-04 21:00:00,62.8,-39.0,-100.00,West,265,0.0,0.0,1,0.00,,,0.00,,2013-05-05 02:00:00,
2013-05-04 21:05:00,62.8,-39.0,-100.00,West,265,0.0,0.0,1,0.00,,,0.00,,2013-05-05 02:05:00,
2013-05-04 21:10:00,62.7,-39.0,-100.00,West,265,0.0,0.0,1,0.00,,,0.00,,2013-05-05 02:10:00,
2013-05-04 21:15:00,62.6,-26.0,-100.00,West,265,0.0,0.0,2,0.00,,,0.00,,2013-05-05 02:15:00,
2013-05-04 21:20:00,62.4,-27.0,-100.00,West,265,0.0,0.0,2,0.00,,,0.00,,2013-05-05 02:20:00,
2013-05-04 21:25:00,62.0,-27.0,-100.00,West,265,0.0,0.0,2,0.00,,,0.00,,2013-05-05 02:25:00,
2013-05-04 21:30:00,60.8,-28.0,-100.00,West,265,0.0,0.0,2,0.00,,,0.00,,2013-05-05 02:30:00,
2013-05-04 21:35:00,60.8,-28.0,-100.00,West,265,0.0,0.0,2,0.00,,,0.00,,2013-05-05 02:35:00,
2013-05-04 21:40:00,60.8,-28.0,-100.00,West,265,0.0,0.0,2,0.00,,,0.00,,2013-05-05 02:40:00,
2013-05-04 21:45:00,60.8,-28.0,-100.00,West,265,0.0,0.0,2,0.00,,,0.00,,2013-05-05 02:45:00,
2013-05-04 21:50:00,60.6,-20.0,-100.00,West,265,0.0,0.0,3,0.00,,,0.00,,2013-05-05 02:50:00,
2013-05-04 21:55:00,60.5,-20.0,-100.00,West,265,0.0,0.0,3,0.00,,,0.00,,2013-05-05 02:55:00,
2013-05-04 22:00:00,60.3,-20.0,-100.00,West,265,0.0,0.0,3,0.00,,,0.00,,2013-05-05 03:00:00,
2013-05-04 22:05:00,60.1,-21.0,-100.00,West,265,0.0,0.0,3,0.00,,,0.00,,2013-05-05 03:05:00,
2013-05-04 22:10:00,58.8,-21.0,-100.00,West,265,0.0,0.0,3,0.00,,,0.00,,2013-05-05 03:10:00,
2013-05-04 22:15:00,58.5,-16.0,-100.00,West,265,0.0,0.0,4,0.00,,,0.00,,2013-05-05 03:15:00,
2013-05-04 22:20:00,58.3,-16.0,-100.00,West,265,0.0,0.0,4,0.00,,,0.00,,2013-05-05 03:20:00,
2013-05-04 22:25:00,58.0,-16.0,-100.00,West,265,0.0,0.0,4,0.00,,,0.00,,2013-05-05 03:25:00,
2013-05-04 22:30:00,57.6,-17.0,-100.00,West,265,0.0,0.0,4,0.00,,,0.00,,2013-05-05 03:30:00,
2013-05-04 22:35:00,57.3,-13.0,-100.00,West,265,0.0,0.0,5,0.00,,,0.00,,2013-05-05 03:35:00,
2013-05-04 22:40:00,57.1,-13.0,-100.00,West,265,0.0,0.0,5,0.00,,,0.00,,2013-05-05 03:40:00,
2013-05-04 22:45:00,55.7,-14.0,-100.00,West,265,0.0,0.0,5,0.00,,,0.00,,2013-05-05 03:45:00,
2013-05-04 22:50:00,55.7,-14.0,-100.00,West,265,0.0,0.0,5,0.00,,,0.00,,2013-05-05 03:50:00,
2013-05-04 22:55:00,55.5,-14.0,-100.00,West,265,0.0,0.0,5,0.00,,,0.00,,2013-05-05 03:55:00,
2013-05-04 23:00:00,55.3,-10.0,-100.00,West,265,0.0,0.0,6,0.00,,,0.00,,2013-05-05 04:00:00,
2013-05-04 23:05:00,55.2,-10.0,-100.00,West,265,0.0,0.0,6,0.00,,,0.00,,2013-05-05 04:05:00,
2013-05-04 23:10:00,55.0,-11.0,-100.00,West,265,0.0,0.0,6,0.00,,,0.00,,2013-05-05 04:10:00,
2013-05-04 23:15:00,53.6,-12.0,-100.00,West,265,0.0,0.0,6,0.00,,,0.00,,2013-05-05 04:15:00,
2013-05-04 23:20:00,53.5,-9.0,-100.00,West,265,0.0,0.0,7,0.00,,,0.00,,2013-05-05 04:20:00,
2013-05-04 23:25:00,53.3,-9.0,-100.00,West,265,0.0,0.0,7,0.00,,,0.00,,2013-05-05 04:25:00,
2013-05-04 23:30:00,53.3,-9.0,-100.00,West,265,0.0,0.0,7,0.00,,,0.00,,2013-05-05 04:30:00,
2013-05-04 23:35:00,53.2,-9.0,-100.00,West,265,0.0,0.0,7,0.00,,,0.00,,2013-05-05 04:35:00,
2013-05-04 23:40:00,53.3,-9.0,-100.00,West,265,0.0,0.0,7,0.00,,,0.00,,2013-05-05 04:40:00,
2013-05-04 23:45:00,53.3,-9.0,-100.00,West,265,0.0,0.0,7,0.00,,,0.00,,2013-05-05 04:45:00,
2013-05-04 23:50:00,53.4,-9.0,-100.00,West,265,0.0,0.0,7,0.00,,,0.00,,2013-05-05 04:50:00,